createdAt,value
2019-06-08T00:00:27.545Z,12.30
2019-06-08T00:02:57.391Z,12.30
2019-06-08T00:05:27.221Z,12.20
2019-06-08T00:07:57.057Z,12.20
2019-06-08T00:10:27.848Z,12.10
2019-06-08T00:12:57.690Z,12.10
2019-06-08T00:15:27.525Z,12.10
2019-06-08T00:17:59.343Z,12.00
2019-06-08T00:20:28.905Z,12.00
2019-06-08T00:22:58.749Z,11.90
2019-06-08T00:25:28.571Z,11.90
2019-06-08T00:27:58.408Z,11.80
2019-06-08T00:30:28.813Z,11.80
2019-06-08T00:32:58.746Z,11.80
2019-06-08T00:35:28.557Z,11.80
2019-06-08T00:37:58.399Z,11.70
2019-06-08T00:40:28.273Z,11.70
2019-06-08T00:42:58.105Z,11.70
2019-06-08T00:45:28.072Z,11.80
2019-06-08T00:47:58.182Z,11.70
2019-06-08T00:50:29.252Z,11.70
2019-06-08T00:52:59.282Z,11.70
2019-06-08T00:55:29.884Z,11.70
2019-06-08T00:57:59.805Z,11.70
2019-06-08T01:00:30.756Z,11.80
2019-06-08T01:03:00.744Z,11.90
2019-06-08T01:05:30.569Z,11.90
2019-06-08T01:08:00.407Z,11.90
2019-06-08T01:10:30.241Z,11.80
2019-06-08T01:13:00.091Z,11.80
2019-06-08T01:15:34.133Z,11.80
2019-06-08T01:18:03.936Z,11.80
2019-06-08T01:20:32.978Z,11.70
2019-06-08T01:23:02.821Z,11.70
2019-06-08T01:25:32.657Z,11.70
2019-06-08T01:28:02.501Z,11.70
2019-06-08T01:30:33.297Z,11.60
2019-06-08T01:33:03.242Z,11.60
2019-06-08T01:35:33.149Z,11.60
2019-06-08T01:38:02.989Z,11.60
2019-06-08T01:40:32.813Z,11.60
2019-06-08T01:43:02.745Z,11.50
2019-06-08T01:45:33.289Z,11.50
2019-06-08T01:48:18.842Z,11.50
2019-06-08T01:50:36.387Z,11.50
2019-06-08T01:53:06.220Z,11.40
2019-06-08T01:55:36.052Z,11.40
2019-06-08T01:58:06.061Z,11.40
2019-06-08T02:00:41.184Z,11.40
2019-06-08T02:03:07.430Z,11.40
2019-06-08T02:05:37.265Z,11.30
2019-06-08T02:08:07.178Z,11.30
2019-06-08T02:10:37.081Z,11.30
2019-06-08T02:13:08.717Z,11.30
2019-06-08T02:15:38.872Z,11.20
2019-06-08T02:18:08.729Z,11.20
2019-06-08T02:20:39.354Z,11.10
2019-06-08T02:23:09.268Z,11.10
2019-06-08T02:25:39.616Z,11.10
2019-06-08T02:28:09.513Z,11.00
2019-06-08T02:30:41.850Z,11.00
2019-06-08T02:33:11.935Z,11.00
2019-06-08T02:35:41.994Z,11.00
2019-06-08T02:38:11.851Z,10.90
2019-06-08T02:40:41.693Z,10.90
2019-06-08T02:43:12.874Z,10.90
2019-06-08T02:45:42.791Z,10.80
2019-06-08T02:48:12.855Z,10.80
2019-06-08T02:50:54.129Z,10.80
2019-06-08T02:53:25.503Z,10.80
2019-06-08T02:55:55.772Z,10.90
2019-06-08T02:58:25.677Z,10.90
2019-06-08T03:00:56.158Z,10.90
2019-06-08T03:03:27.057Z,10.90
2019-06-08T03:06:00.043Z,10.90
2019-06-08T03:08:32.411Z,10.90
2019-06-08T03:11:05.421Z,10.90
2019-06-08T03:13:36.104Z,10.90
2019-06-08T03:16:06.976Z,10.90
2019-06-08T03:18:38.209Z,10.90
2019-06-08T03:21:08.377Z,10.90
2019-06-08T03:23:38.835Z,10.90
2019-06-08T03:26:09.799Z,10.90
2019-06-08T03:28:41.438Z,10.90
2019-06-08T03:31:11.180Z,10.90
2019-06-08T03:33:50.884Z,10.80
2019-06-08T03:36:12.624Z,10.80
2019-06-08T03:38:44.479Z,10.80
2019-06-08T03:41:14.063Z,10.90
2019-06-08T03:43:43.936Z,10.90
2019-06-08T03:46:13.809Z,10.90
2019-06-08T03:48:45.815Z,10.90
2019-06-08T03:51:15.166Z,10.90
2019-06-08T03:53:47.206Z,10.90
2019-06-08T03:56:16.549Z,10.90
2019-06-08T03:58:48.006Z,10.90
2019-06-08T04:01:18.093Z,10.90
2019-06-08T04:03:47.984Z,10.90
2019-06-08T04:06:17.822Z,11.00
2019-06-08T04:08:47.751Z,11.00
2019-06-08T04:11:17.684Z,11.00
2019-06-08T04:13:47.514Z,11.10
2019-06-08T04:16:17.354Z,11.10
2019-06-08T04:18:47.182Z,11.10
2019-06-08T04:21:17.018Z,11.10
2019-06-08T04:23:47.289Z,11.00
2019-06-08T04:26:17.181Z,11.00
2019-06-08T04:28:47.957Z,11.00
2019-06-08T04:31:18.558Z,11.00
2019-06-08T04:33:48.398Z,11.00
2019-06-08T04:36:18.241Z,11.00
2019-06-08T04:38:50.098Z,11.00
2019-06-08T04:41:19.624Z,11.00
2019-06-08T04:43:49.953Z,11.10
2019-06-08T04:46:19.871Z,11.20
2019-06-08T04:48:50.204Z,11.40
2019-06-08T04:51:20.198Z,11.40
2019-06-08T04:53:50.030Z,11.50
2019-06-08T04:56:19.964Z,11.60
2019-06-08T04:58:51.199Z,11.70
2019-06-08T05:01:21.360Z,11.80
2019-06-08T05:03:51.194Z,11.90
2019-06-08T05:06:21.026Z,12.00
2019-06-08T05:08:50.869Z,12.10
2019-06-08T05:11:20.714Z,12.20
2019-06-08T05:13:50.541Z,12.30
2019-06-08T05:16:20.397Z,12.40
2019-06-08T05:18:50.232Z,12.50
2019-06-08T05:21:20.123Z,12.70
2019-06-08T05:23:58.341Z,12.90
2019-06-08T05:26:21.568Z,13.00
2019-06-08T05:28:52.373Z,13.20
2019-06-08T05:31:22.220Z,13.30
2019-06-08T05:33:52.061Z,13.40
2019-06-08T05:36:21.922Z,13.40
2019-06-08T05:38:51.758Z,13.60
2019-06-08T05:41:24.089Z,13.60
2019-06-08T05:43:53.269Z,13.60
2019-06-08T05:46:23.104Z,13.60
2019-06-08T05:48:52.941Z,13.60
2019-06-08T05:51:22.795Z,13.70
2019-06-08T05:53:52.630Z,13.80
2019-06-08T05:56:22.466Z,14.00
2019-06-08T05:58:52.293Z,14.00
2019-06-08T06:01:22.162Z,14.20
2019-06-08T06:03:52.055Z,14.30
2019-06-08T06:06:22.874Z,14.40
2019-06-08T06:08:52.720Z,14.50
2019-06-08T06:11:22.613Z,14.70
2019-06-08T06:13:52.512Z,14.70
2019-06-08T06:16:22.352Z,14.70
2019-06-08T06:18:52.400Z,14.80
2019-06-08T06:21:22.316Z,15.00
2019-06-08T06:23:53.116Z,14.80
2019-06-08T06:26:22.976Z,14.60
2019-06-08T06:28:52.869Z,14.60
2019-06-08T06:31:22.713Z,14.60
2019-06-08T06:33:52.558Z,14.40
2019-06-08T06:36:22.451Z,14.30
2019-06-08T06:38:52.392Z,14.10
2019-06-08T06:41:22.225Z,14.30
2019-06-08T06:43:52.304Z,14.70
2019-06-08T06:46:22.253Z,15.20
2019-06-08T06:48:52.575Z,15.50
2019-06-08T06:51:26.668Z,15.50
2019-06-08T06:53:56.038Z,15.30
2019-06-08T06:56:25.886Z,15.20
2019-06-08T06:58:55.708Z,15.10
2019-06-08T07:01:25.830Z,15.40
2019-06-08T07:03:55.659Z,15.40
2019-06-08T07:06:25.497Z,15.40
2019-06-08T07:08:55.340Z,15.40
2019-06-08T07:11:25.177Z,15.50
2019-06-08T07:13:55.245Z,15.40
2019-06-08T07:16:25.344Z,15.50
2019-06-08T07:18:55.199Z,15.20
2019-06-08T07:21:25.026Z,14.90
2019-06-08T07:23:56.207Z,14.80
2019-06-08T07:26:26.247Z,14.70
2019-06-08T07:28:56.351Z,14.50
2019-06-08T07:31:26.348Z,14.50
2019-06-08T07:33:56.464Z,14.50
2019-06-08T07:36:26.357Z,14.90
2019-06-08T07:38:56.210Z,14.90
2019-06-08T07:41:26.044Z,14.90
2019-06-08T07:43:56.585Z,15.20
2019-06-08T07:46:26.554Z,15.20
2019-06-08T07:48:56.663Z,15.20
2019-06-08T07:51:26.507Z,15.50
2019-06-08T07:53:56.346Z,15.90
2019-06-08T07:56:26.176Z,16.20
2019-06-08T07:58:57.107Z,16.10
2019-06-08T08:01:35.887Z,16.60
2019-06-08T08:03:58.664Z,16.30
2019-06-08T08:06:30.553Z,16.40
2019-06-08T08:09:00.024Z,16.30
2019-06-08T08:11:29.856Z,16.40
2019-06-08T08:13:59.695Z,16.10
2019-06-08T08:16:29.529Z,16.30
2019-06-08T08:18:59.687Z,16.10
2019-06-08T08:21:29.782Z,16.40
2019-06-08T08:24:01.492Z,16.50
2019-06-08T08:26:34.244Z,16.30
2019-06-08T08:29:03.440Z,16.00
2019-06-08T08:31:33.467Z,15.90
2019-06-08T08:34:05.721Z,15.90
2019-06-08T08:36:34.823Z,15.90
2019-06-08T08:39:08.386Z,15.70
2019-06-08T08:41:38.967Z,15.50
2019-06-08T08:44:09.116Z,15.60
2019-06-08T08:46:39.929Z,15.70
2019-06-08T08:49:12.896Z,16.00
2019-06-08T08:51:41.309Z,16.20
2019-06-08T08:54:11.153Z,16.00
2019-06-08T08:56:40.976Z,15.70
2019-06-08T08:59:11.076Z,15.70
2019-06-08T09:01:40.942Z,15.90
2019-06-08T09:04:11.021Z,16.00
2019-06-08T09:06:40.921Z,16.00
2019-06-08T09:09:10.765Z,15.90
2019-06-08T09:11:41.283Z,15.70
2019-06-08T09:14:14.145Z,15.50
2019-06-08T09:16:42.825Z,15.50
2019-06-08T09:19:12.826Z,15.90
2019-06-08T09:21:42.652Z,16.00
2019-06-08T09:24:12.872Z,16.10
2019-06-08T09:26:42.754Z,16.10
2019-06-08T09:29:12.600Z,16.40
2019-06-08T09:31:42.421Z,16.60
2019-06-08T09:34:15.465Z,16.70
2019-06-08T09:36:44.681Z,16.60
2019-06-08T09:39:14.578Z,16.90
2019-06-08T09:41:44.563Z,16.70
2019-06-08T09:44:14.550Z,16.30
2019-06-08T09:46:44.425Z,16.30
2019-06-08T09:49:14.511Z,16.10
2019-06-08T09:51:44.337Z,16.00
2019-06-08T09:54:14.210Z,16.00
2019-06-08T09:56:44.185Z,15.90
2019-06-08T09:59:15.310Z,15.80
2019-06-08T10:01:45.514Z,15.90
2019-06-08T10:04:15.358Z,16.00
2019-06-08T10:06:47.801Z,16.10
2019-06-08T10:09:18.670Z,16.00
2019-06-08T10:11:48.261Z,15.90
2019-06-08T10:14:18.783Z,15.80
2019-06-08T10:16:48.833Z,15.90
2019-06-08T10:19:18.922Z,16.00
2019-06-08T10:21:48.766Z,16.20
2019-06-08T10:24:18.605Z,16.10
2019-06-08T10:26:48.444Z,16.10
2019-06-08T10:29:18.615Z,16.20
2019-06-08T10:31:48.552Z,16.30
2019-06-08T10:34:19.364Z,16.10
2019-06-08T10:36:49.193Z,16.10
2019-06-08T10:39:19.769Z,16.20
2019-06-08T10:41:51.669Z,16.40
2019-06-08T10:44:21.133Z,16.80
2019-06-08T10:46:50.958Z,16.90
2019-06-08T10:49:21.029Z,16.90
2019-06-08T10:51:50.976Z,17.00
2019-06-08T10:54:20.833Z,17.10
2019-06-08T10:56:50.721Z,17.30
2019-06-08T10:59:20.560Z,17.20
2019-06-08T11:01:50.389Z,16.70
2019-06-08T11:04:20.239Z,16.90
2019-06-08T11:06:50.105Z,16.90
2019-06-08T11:09:20.027Z,17.40
2019-06-08T11:11:49.905Z,17.60
2019-06-08T11:14:22.644Z,17.80
2019-06-08T11:16:51.293Z,17.80
2019-06-08T11:19:21.121Z,17.50
2019-06-08T11:21:50.954Z,17.20
2019-06-08T11:24:25.165Z,16.90
2019-06-08T11:26:53.356Z,16.80
2019-06-08T11:29:23.221Z,17.00
2019-06-08T11:31:53.065Z,16.90
2019-06-08T11:34:22.902Z,16.80
2019-06-08T11:36:52.750Z,16.90
2019-06-08T11:39:22.650Z,17.10
2019-06-08T11:41:52.492Z,17.10
2019-06-08T11:44:22.333Z,16.80
2019-06-08T11:46:52.183Z,16.60
2019-06-08T11:49:22.979Z,16.40
2019-06-08T11:51:52.815Z,16.40
2019-06-08T11:54:34.463Z,16.90
2019-06-08T11:56:54.841Z,17.10
2019-06-08T11:59:24.910Z,17.20
2019-06-08T12:01:54.751Z,17.30
2019-06-08T12:04:25.623Z,17.50
2019-06-08T12:06:55.478Z,17.50
2019-06-08T12:09:25.303Z,17.40
2019-06-08T12:11:55.180Z,17.20
2019-06-08T12:14:25.014Z,17.10
2019-06-08T12:16:54.861Z,17.20
2019-06-08T12:19:24.693Z,17.50
2019-06-08T12:21:54.538Z,17.40
2019-06-08T12:24:24.441Z,17.50
2019-06-08T12:26:59.955Z,17.30
2019-06-08T12:29:28.388Z,17.50
2019-06-08T12:32:00.540Z,17.30
2019-06-08T12:34:31.318Z,17.50
2019-06-08T12:37:02.036Z,18.10
2019-06-08T12:39:32.164Z,18.70
2019-06-08T12:42:02.161Z,18.90
2019-06-08T12:44:32.168Z,18.70
2019-06-08T12:47:02.228Z,18.30
2019-06-08T12:49:32.220Z,18.10
2019-06-08T12:52:02.142Z,18.00
2019-06-08T12:54:32.099Z,18.20
2019-06-08T12:57:02.093Z,18.30
2019-06-08T12:59:32.086Z,18.10
2019-06-08T13:02:02.157Z,18.10
2019-06-08T13:04:32.130Z,17.90
2019-06-08T13:07:02.003Z,17.60
2019-06-08T13:09:31.848Z,17.60
2019-06-08T13:12:01.833Z,17.60
2019-06-08T13:14:31.840Z,17.80
2019-06-08T13:17:01.866Z,17.70
2019-06-08T13:19:31.785Z,17.70
2019-06-08T13:22:01.739Z,17.70
2019-06-08T13:24:31.692Z,17.60
2019-06-08T13:27:01.777Z,17.70
2019-06-08T13:29:31.730Z,17.60
2019-06-08T13:32:01.742Z,17.60
2019-06-08T13:34:31.717Z,17.50
2019-06-08T13:37:01.778Z,17.70
2019-06-08T13:39:32.780Z,17.80
2019-06-08T13:42:02.854Z,17.70
2019-06-08T13:44:32.725Z,17.70
2019-06-08T13:47:02.561Z,17.70
2019-06-08T13:49:32.395Z,17.80
2019-06-08T13:52:02.249Z,17.80
2019-06-08T13:54:32.074Z,17.60
2019-06-08T13:57:01.913Z,17.50
2019-06-08T13:59:31.742Z,17.50
2019-06-08T14:02:01.584Z,18.00
2019-06-08T14:04:32.006Z,18.40
2019-06-08T14:07:01.892Z,18.70
2019-06-08T14:09:31.993Z,19.10
2019-06-08T14:12:01.910Z,19.00
2019-06-08T14:14:33.662Z,18.60
2019-06-08T14:17:04.249Z,18.40
2019-06-08T14:19:34.079Z,18.20
2019-06-08T14:22:04.896Z,18.10
2019-06-08T14:24:34.915Z,18.20
2019-06-08T14:27:05.346Z,18.20
2019-06-08T14:29:35.180Z,18.30
2019-06-08T14:32:07.691Z,18.20
2019-06-08T14:34:38.654Z,18.10
2019-06-08T14:37:08.641Z,18.10
2019-06-08T14:39:38.660Z,18.00
2019-06-08T14:42:08.511Z,17.70
2019-06-08T14:44:38.342Z,17.50
2019-06-08T14:47:13.926Z,17.60
2019-06-08T14:49:44.692Z,17.80
2019-06-08T14:52:14.985Z,18.30
2019-06-08T14:54:44.834Z,18.60
2019-06-08T14:57:14.669Z,18.60
2019-06-08T14:59:44.516Z,18.50
2019-06-08T15:02:14.361Z,18.30
2019-06-08T15:04:44.193Z,18.10
2019-06-08T15:07:14.037Z,18.00
2019-06-08T15:09:43.877Z,18.10
2019-06-08T15:12:13.717Z,18.00
2019-06-08T15:14:43.556Z,18.30
2019-06-08T15:17:13.406Z,18.60
2019-06-08T15:19:43.236Z,18.50
2019-06-08T15:22:13.092Z,18.30
2019-06-08T15:24:42.929Z,18.30
2019-06-08T15:27:12.777Z,17.90
2019-06-08T15:29:42.618Z,18.00
2019-06-08T15:32:12.448Z,18.50
2019-06-08T15:34:42.310Z,18.90
2019-06-08T15:37:12.141Z,19.00
2019-06-08T15:39:41.996Z,18.80
2019-06-08T15:42:11.896Z,18.80
2019-06-08T15:44:41.769Z,19.00
2019-06-08T15:47:12.597Z,19.30
2019-06-08T15:49:42.455Z,19.00
2019-06-08T15:52:12.290Z,18.60
2019-06-08T15:54:42.129Z,18.30
2019-06-08T15:57:11.962Z,18.00
2019-06-08T15:59:42.117Z,17.90
2019-06-08T16:02:12.020Z,17.80
2019-06-08T16:04:41.864Z,17.80
2019-06-08T16:07:11.764Z,17.80
2019-06-08T16:09:41.620Z,17.90
2019-06-08T16:12:11.458Z,17.90
2019-06-08T16:14:41.749Z,17.80
2019-06-08T16:17:11.609Z,18.30
2019-06-08T16:19:41.457Z,18.70
2019-06-08T16:22:11.289Z,18.30
2019-06-08T16:24:41.161Z,17.90
2019-06-08T16:27:10.998Z,17.60
2019-06-08T16:29:40.906Z,17.50
2019-06-08T16:32:10.813Z,17.50
2019-06-08T16:34:40.665Z,17.40
2019-06-08T16:37:11.517Z,17.40
2019-06-08T16:39:41.412Z,17.50
2019-06-08T16:42:11.237Z,17.60
2019-06-08T16:44:41.089Z,17.60
2019-06-08T16:47:10.947Z,17.60
2019-06-08T16:49:40.850Z,17.50
2019-06-08T16:52:11.602Z,17.50
2019-06-08T16:54:41.461Z,17.50
2019-06-08T16:57:11.424Z,17.40
2019-06-08T16:59:41.264Z,17.40
2019-06-08T17:02:11.110Z,17.30
2019-06-08T17:04:41.012Z,17.30
2019-06-08T17:07:10.849Z,17.20
2019-06-08T17:09:40.712Z,17.20
2019-06-08T17:12:11.690Z,17.10
2019-06-08T17:14:41.728Z,17.10
2019-06-08T17:17:12.845Z,17.00
2019-06-08T17:19:42.771Z,16.90
2019-06-08T17:22:12.589Z,16.90
2019-06-08T17:24:42.430Z,16.20
2019-06-08T17:27:25.838Z,15.60
2019-06-08T17:29:44.680Z,15.40
2019-06-08T17:32:14.532Z,15.10
2019-06-08T17:34:44.440Z,15.00
2019-06-08T17:37:14.277Z,14.90
2019-06-08T17:39:44.112Z,15.00
2019-06-08T17:42:13.973Z,15.10
2019-06-08T17:44:43.885Z,15.10
2019-06-08T17:47:13.869Z,15.10
2019-06-08T17:49:43.890Z,15.10
2019-06-08T17:52:13.714Z,15.00
2019-06-08T17:54:43.574Z,14.90
2019-06-08T17:57:13.401Z,14.90
2019-06-08T17:59:43.248Z,14.80
2019-06-08T18:02:21.422Z,14.80
2019-06-08T18:04:45.586Z,14.80
2019-06-08T18:07:17.138Z,14.80
2019-06-08T18:09:48.448Z,14.90
2019-06-08T18:12:18.862Z,14.90
2019-06-08T18:14:48.759Z,14.90
2019-06-08T18:17:18.601Z,14.90
2019-06-08T18:19:49.752Z,14.90
2019-06-08T18:22:19.822Z,15.00
2019-06-08T18:24:50.620Z,15.10
2019-06-08T18:27:20.456Z,15.30
2019-06-08T18:29:50.413Z,15.40
2019-06-08T18:32:20.248Z,15.50
2019-06-08T18:34:50.081Z,15.60
2019-06-08T18:37:19.913Z,15.60
2019-06-08T18:39:49.833Z,15.70
2019-06-08T18:42:20.418Z,15.70
2019-06-08T18:44:50.256Z,15.80
2019-06-08T18:47:20.091Z,15.80
2019-06-08T18:49:50.905Z,15.70
2019-06-08T18:52:20.760Z,15.70
2019-06-08T18:54:50.595Z,15.70
2019-06-08T18:57:20.668Z,15.50
2019-06-08T18:59:52.947Z,15.50
2019-06-08T19:02:22.039Z,15.40
2019-06-08T19:04:51.913Z,15.40
2019-06-08T19:07:22.031Z,15.40
2019-06-08T19:09:52.733Z,15.40
2019-06-08T19:12:22.552Z,15.50
2019-06-08T19:14:52.601Z,15.50
2019-06-08T19:17:22.409Z,15.50
2019-06-08T19:19:52.663Z,15.50
2019-06-08T19:22:23.543Z,15.50
2019-06-08T19:24:53.383Z,15.50
2019-06-08T19:27:23.204Z,15.50
2019-06-08T19:29:53.039Z,15.30
2019-06-08T19:32:22.873Z,15.20
2019-06-08T19:34:54.646Z,15.00
2019-06-08T19:37:24.270Z,14.90
2019-06-08T19:39:54.092Z,14.80
2019-06-08T19:42:37.082Z,14.70
2019-06-08T19:45:04.699Z,14.50
2019-06-08T19:47:27.710Z,14.40
2019-06-08T19:49:57.919Z,14.30
2019-06-08T19:52:27.865Z,14.20
2019-06-08T19:54:58.193Z,14.20
2019-06-08T19:57:28.371Z,14.00
2019-06-08T20:00:00.354Z,14.00
2019-06-08T20:02:29.880Z,14.00
2019-06-08T20:04:59.722Z,14.00
2019-06-08T20:07:29.552Z,13.90
2019-06-08T20:09:59.388Z,13.80
2019-06-08T20:12:29.230Z,13.90
2019-06-08T20:14:59.062Z,13.90
2019-06-08T20:17:28.908Z,13.80
2019-06-08T20:19:58.743Z,13.80
2019-06-08T20:22:28.582Z,13.70
2019-06-08T20:24:58.505Z,13.60
2019-06-08T20:27:28.366Z,13.40
2019-06-08T20:29:58.381Z,13.30
2019-06-08T20:32:28.370Z,13.20
2019-06-08T20:34:59.285Z,13.10
2019-06-08T20:37:29.134Z,13.00
2019-06-08T20:40:09.675Z,12.90
2019-06-08T20:42:31.505Z,12.90
2019-06-08T20:45:01.328Z,12.90
2019-06-08T20:47:32.140Z,12.80
2019-06-08T20:50:02.014Z,12.80
2019-06-08T20:52:34.133Z,12.70
2019-06-08T20:55:04.145Z,12.70
2019-06-08T20:57:33.985Z,12.60
2019-06-08T21:00:11.652Z,12.60
2019-06-08T21:02:40.466Z,12.60
2019-06-08T21:05:10.378Z,12.50
2019-06-08T21:07:40.276Z,12.50
2019-06-08T21:10:10.176Z,12.40
2019-06-08T21:12:40.017Z,12.30
2019-06-08T21:15:09.998Z,12.20
2019-06-08T21:17:39.868Z,12.20
2019-06-08T21:20:09.709Z,12.30
2019-06-08T21:22:39.558Z,12.30
2019-06-08T21:25:09.437Z,12.40
2019-06-08T21:27:39.272Z,12.50
2019-06-08T21:30:20.684Z,12.50
2019-06-08T21:32:40.711Z,12.60
2019-06-08T21:35:10.920Z,12.60
2019-06-08T21:37:40.758Z,12.80
2019-06-08T21:40:10.824Z,12.90
2019-06-08T21:42:40.676Z,13.00
2019-06-08T21:45:12.456Z,13.00
2019-06-08T21:47:42.284Z,13.00
2019-06-08T21:50:12.489Z,13.00
2019-06-08T21:52:42.320Z,13.00
2019-06-08T21:55:12.236Z,13.00
2019-06-08T21:57:42.069Z,13.00
2019-06-08T22:00:29.421Z,12.80
2019-06-08T22:02:45.273Z,12.80
2019-06-08T22:05:15.168Z,12.80
2019-06-08T22:07:47.048Z,12.80
2019-06-08T22:10:17.929Z,12.80
2019-06-08T22:12:48.567Z,12.80
2019-06-08T22:15:18.624Z,12.80
2019-06-08T22:17:48.473Z,12.70
2019-06-08T22:20:18.745Z,12.60
2019-06-08T22:22:48.696Z,12.50
2019-06-08T22:25:18.532Z,12.40
2019-06-08T22:27:48.402Z,12.30
2019-06-08T22:30:32.359Z,12.30
2019-06-08T22:32:49.976Z,12.20
2019-06-08T22:35:19.825Z,12.10
2019-06-08T22:37:51.706Z,12.00
2019-06-08T22:40:21.204Z,11.90
2019-06-08T22:42:51.044Z,11.90
2019-06-08T22:45:20.881Z,11.80
2019-06-08T22:47:50.717Z,11.70
2019-06-08T22:50:20.905Z,11.70
2019-06-08T22:52:50.756Z,11.60
2019-06-08T22:55:20.589Z,11.50
2019-06-08T22:57:50.428Z,11.30
2019-06-08T23:00:22.742Z,11.30
2019-06-08T23:02:51.970Z,11.30
2019-06-08T23:05:21.806Z,11.10
2019-06-08T23:07:51.647Z,11.10
2019-06-08T23:10:22.454Z,10.80
2019-06-08T23:12:52.676Z,10.80
2019-06-08T23:15:22.509Z,10.80
2019-06-08T23:17:52.348Z,10.80
2019-06-08T23:20:22.236Z,10.80
2019-06-08T23:22:52.969Z,10.80
2019-06-08T23:25:22.813Z,10.80
2019-06-08T23:27:52.674Z,10.80
2019-06-08T23:30:22.590Z,10.80
2019-06-08T23:32:52.442Z,10.80
2019-06-08T23:35:22.297Z,10.80
2019-06-08T23:37:52.142Z,10.80
2019-06-08T23:40:21.988Z,10.80
2019-06-08T23:42:51.827Z,10.80
2019-06-08T23:45:21.673Z,10.90
2019-06-08T23:47:51.501Z,10.90
2019-06-08T23:50:21.356Z,10.90
2019-06-08T23:52:51.190Z,10.90
2019-06-08T23:55:21.028Z,10.80
2019-06-08T23:57:50.861Z,10.70
